createdAt,value
2022-12-23T00:02:05.219Z,16.95
2022-12-23T00:04:36.522Z,19.23
2022-12-23T00:07:07.873Z,19.52
2022-12-23T00:09:39.148Z,25.63
2022-12-23T00:12:28.296Z,20.90
2022-12-23T00:15:08.522Z,21.38
2022-12-23T00:17:45.444Z,15.40
2022-12-23T00:20:17.378Z,16.77
2022-12-23T00:23:06.815Z,16.02
2022-12-23T00:25:45.966Z,20.50
2022-12-23T00:28:23.318Z,13.32
2022-12-23T00:31:01.517Z,17.50
2022-12-23T00:33:41.732Z,16.35
2022-12-23T00:36:21.444Z,16.38
2022-12-23T00:39:11.288Z,16.70
2022-12-23T00:42:00.657Z,17.20
2022-12-23T00:44:32.374Z,18.65
2022-12-23T00:47:03.708Z,20.20
2022-12-23T00:49:43.859Z,12.73
2022-12-23T00:52:19.526Z,13.27
2022-12-23T00:54:50.952Z,12.48
2022-12-23T00:57:22.107Z,10.77
2022-12-23T00:59:53.456Z,15.10
2022-12-23T01:02:42.830Z,11.50
2022-12-23T01:05:43.178Z,13.38
2022-12-23T01:08:14.639Z,10.95
2022-12-23T01:10:46.110Z,14.30
2022-12-23T01:13:17.269Z,10.83
2022-12-23T01:15:48.838Z,12.57
2022-12-23T01:18:20.037Z,11.65
2022-12-23T01:20:51.389Z,11.27
2022-12-23T01:23:22.589Z,11.23
2022-12-23T01:26:01.562Z,11.20
2022-12-23T01:28:34.421Z,12.10
2022-12-23T01:31:07.773Z,13.27
2022-12-23T01:33:39.006Z,16.33
2022-12-23T01:36:12.376Z,13.93
2022-12-23T01:38:43.624Z,13.15
2022-12-23T01:41:53.168Z,16.47
2022-12-23T01:44:54.760Z,13.30
2022-12-23T01:47:50.776Z,15.27
2022-12-23T01:50:33.592Z,15.57
2022-12-23T01:53:22.711Z,12.63
2022-12-23T01:56:04.974Z,21.83
2022-12-23T02:01:51.027Z,13.32
2022-12-23T02:04:26.736Z,16.73
2022-12-23T02:07:15.969Z,13.68
2022-12-23T02:09:47.399Z,12.40
2022-12-23T02:12:36.614Z,12.98
2022-12-23T02:15:49.407Z,14.00
2022-12-23T02:21:12.730Z,20.90
2022-12-23T02:24:16.973Z,13.95
2022-12-23T02:27:06.564Z,14.05
2022-12-23T02:29:40.671Z,14.88
2022-12-23T02:32:32.924Z,14.38
2022-12-23T02:35:04.095Z,15.48
2022-12-23T02:37:53.518Z,15.48
2022-12-23T02:40:55.589Z,14.98
2022-12-23T02:43:35.689Z,16.23
2022-12-23T02:46:18.259Z,15.20
2022-12-23T02:49:30.932Z,15.15
2022-12-23T02:52:13.750Z,12.95
2022-12-23T02:54:52.559Z,14.10
2022-12-23T02:57:29.722Z,13.35
2022-12-23T03:00:02.096Z,13.40
2022-12-23T03:02:37.999Z,12.05
2022-12-23T03:05:29.938Z,13.95
2022-12-23T03:08:06.577Z,13.30
2022-12-23T03:11:03.236Z,12.43
2022-12-23T03:14:12.485Z,12.35
2022-12-23T03:17:27.641Z,12.95
2022-12-23T03:20:25.993Z,14.95
2022-12-23T03:23:19.220Z,12.20
2022-12-23T03:26:01.363Z,12.13
2022-12-23T03:28:51.215Z,12.50
2022-12-23T03:31:33.567Z,12.60
2022-12-23T03:34:10.169Z,13.40
2022-12-23T03:36:47.645Z,13.38
2022-12-23T03:39:21.949Z,12.70
2022-12-23T03:42:09.173Z,15.25
2022-12-23T03:45:10.788Z,12.13
2022-12-23T03:47:48.861Z,12.43
2022-12-23T03:50:22.188Z,11.90
2022-12-23T03:53:11.396Z,12.02
2022-12-23T03:55:55.986Z,12.18
2022-12-23T03:58:42.131Z,14.05
2022-12-23T04:01:29.349Z,11.63
2022-12-23T04:04:15.789Z,12.02
2022-12-23T04:07:02.889Z,11.85
2022-12-23T04:09:34.218Z,11.40
2022-12-23T04:12:05.899Z,11.83
2022-12-23T04:14:39.070Z,12.07
2022-12-23T04:17:10.530Z,11.68
2022-12-23T04:19:41.746Z,11.80
2022-12-23T04:22:13.777Z,11.40
2022-12-23T04:24:45.141Z,12.02
2022-12-23T04:27:17.721Z,12.02
2022-12-23T04:29:48.888Z,10.85
2022-12-23T04:32:20.239Z,11.05
2022-12-23T04:34:51.421Z,11.67
2022-12-23T04:37:22.856Z,11.23
2022-12-23T04:39:54.068Z,13.02
2022-12-23T04:42:25.731Z,12.37
2022-12-23T04:44:56.905Z,12.05
2022-12-23T04:47:28.690Z,13.00
2022-12-23T04:49:59.914Z,12.68
2022-12-23T04:52:31.308Z,12.27
2022-12-23T04:55:02.492Z,12.00
2022-12-23T04:57:33.897Z,13.17
2022-12-23T05:00:06.121Z,12.18
2022-12-23T05:02:37.662Z,13.02
2022-12-23T05:05:09.347Z,11.93
2022-12-23T05:07:40.762Z,11.63
2022-12-23T05:10:12.658Z,12.15
2022-12-23T05:12:44.174Z,12.23
2022-12-23T05:15:15.348Z,13.15
2022-12-23T05:17:46.727Z,12.17
2022-12-23T05:20:17.987Z,13.73
2022-12-23T05:22:49.398Z,12.10
2022-12-23T05:25:20.686Z,13.35
2022-12-23T05:27:52.115Z,14.33
2022-12-23T05:30:23.321Z,13.13
2022-12-23T05:33:00.761Z,12.03
2022-12-23T05:35:32.057Z,14.55
2022-12-23T05:38:04.747Z,18.60
2022-12-23T05:40:35.983Z,17.85
2022-12-23T05:43:07.492Z,19.90
2022-12-23T05:45:39.167Z,24.20
2022-12-23T05:48:10.537Z,24.40
2022-12-23T05:50:42.519Z,24.00
2022-12-23T05:55:44.460Z,19.77
2022-12-23T05:58:16.824Z,19.07
2022-12-23T06:00:47.980Z,19.60
2022-12-23T06:03:19.477Z,19.63
2022-12-23T06:05:54.330Z,23.15
2022-12-23T06:08:26.676Z,23.55
2022-12-23T06:10:57.928Z,22.10
2022-12-23T06:13:29.242Z,22.13
2022-12-23T06:16:00.457Z,21.73
2022-12-23T06:18:31.844Z,22.23
2022-12-23T06:21:03.127Z,20.58
2022-12-23T06:23:34.519Z,22.30
2022-12-23T06:26:06.337Z,21.98
2022-12-23T06:28:37.747Z,20.95
2022-12-23T06:31:09.234Z,19.83
2022-12-23T06:33:40.623Z,18.60
2022-12-23T06:36:11.984Z,21.00
2022-12-23T06:38:43.307Z,24.38
2022-12-23T06:41:14.642Z,22.50
2022-12-23T06:43:49.956Z,21.10
2022-12-23T06:46:25.227Z,22.05
2022-12-23T06:48:56.663Z,19.13
2022-12-23T06:51:27.863Z,20.08
2022-12-23T06:54:01.852Z,21.53
2022-12-23T06:56:34.749Z,20.88
2022-12-23T06:59:06.298Z,21.52
2022-12-23T07:01:37.660Z,19.55
2022-12-23T07:04:09.128Z,20.08
2022-12-23T07:06:41.224Z,22.35
2022-12-23T07:11:43.964Z,19.08
2022-12-23T07:14:15.363Z,18.00
2022-12-23T07:16:46.818Z,18.13
2022-12-23T07:19:18.225Z,18.73
2022-12-23T07:21:49.450Z,18.83
2022-12-23T07:24:20.919Z,17.20
2022-12-23T07:26:53.619Z,26.08
2022-12-23T07:29:25.082Z,17.13
2022-12-23T07:31:56.396Z,16.77
2022-12-23T07:34:27.858Z,17.67
2022-12-23T07:36:59.079Z,19.00
2022-12-23T07:39:30.718Z,16.60
2022-12-23T07:42:33.866Z,17.13
2022-12-23T07:44:53.209Z,20.10
2022-12-23T07:47:24.937Z,16.73
2022-12-23T07:49:56.301Z,15.93
2022-12-23T07:52:27.575Z,17.05
2022-12-23T07:54:58.940Z,26.13
2022-12-23T07:57:30.914Z,15.50
2022-12-23T08:02:43.865Z,15.02
2022-12-23T08:05:16.441Z,17.48
2022-12-23T08:07:47.767Z,25.13
2022-12-23T08:10:19.515Z,22.70
2022-12-23T08:12:50.710Z,21.45
2022-12-23T08:15:22.434Z,15.18
2022-12-23T08:17:53.654Z,19.75
2022-12-23T08:20:25.074Z,22.70
2022-12-23T08:22:57.451Z,22.48
2022-12-23T08:25:28.897Z,13.57
2022-12-23T08:28:00.089Z,13.63
2022-12-23T08:30:31.535Z,13.33
2022-12-23T08:33:02.728Z,17.73
2022-12-23T08:35:34.077Z,12.63
2022-12-23T08:38:05.205Z,19.58
2022-12-23T08:40:36.690Z,20.23
2022-12-23T08:43:10.890Z,13.20
2022-12-23T08:45:42.286Z,15.70
2022-12-23T08:48:14.301Z,15.48
2022-12-23T08:50:48.036Z,18.88
2022-12-23T08:53:19.199Z,12.45
2022-12-23T08:55:50.837Z,11.30
2022-12-23T08:58:22.057Z,17.48
2022-12-23T09:00:53.472Z,15.23
2022-12-23T09:03:24.877Z,15.80
2022-12-23T09:05:56.476Z,16.05
2022-12-23T09:08:27.619Z,12.73
2022-12-23T09:10:59.006Z,11.93
2022-12-23T09:13:35.096Z,13.52
2022-12-23T09:16:08.128Z,16.05
2022-12-23T09:18:40.227Z,19.73
2022-12-23T09:21:16.002Z,12.23
2022-12-23T09:23:47.620Z,19.05
2022-12-23T09:26:30.987Z,15.05
2022-12-23T09:29:02.556Z,14.00
2022-12-23T09:31:37.301Z,18.65
2022-12-23T09:34:09.384Z,16.65
2022-12-23T09:36:40.589Z,24.40
2022-12-23T09:39:12.526Z,18.93
2022-12-23T09:42:09.293Z,18.77
2022-12-23T09:45:21.717Z,21.13
2022-12-23T09:47:53.727Z,24.05
2022-12-23T09:53:17.426Z,21.77
2022-12-23T09:56:11.553Z,27.02
2022-12-23T09:58:47.235Z,24.33
2022-12-23T10:01:41.474Z,27.85
2022-12-23T10:04:24.451Z,32.30
2022-12-23T10:07:25.331Z,29.20
2022-12-23T10:09:58.782Z,40.70
2022-12-23T10:12:44.499Z,51.80
2022-12-23T10:15:38.308Z,51.30
2022-12-23T10:18:22.556Z,37.72
2022-12-23T10:21:00.784Z,28.20
2022-12-23T10:23:38.914Z,33.03
2022-12-23T10:26:31.462Z,23.98
2022-12-23T10:29:19.817Z,35.25
2022-12-23T10:32:17.688Z,45.75
2022-12-23T10:35:12.012Z,39.10
2022-12-23T10:38:01.768Z,46.53
2022-12-23T10:40:46.886Z,50.65
2022-12-23T10:43:33.420Z,55.08
2022-12-23T10:46:29.258Z,47.55
2022-12-23T10:49:14.715Z,42.67
2022-12-23T10:51:55.610Z,58.30
2022-12-23T10:54:34.361Z,51.38
2022-12-23T10:57:08.420Z,51.28
2022-12-23T10:59:39.813Z,53.35
2022-12-23T11:02:17.294Z,42.88
2022-12-23T11:04:50.536Z,66.85
2022-12-23T11:07:46.411Z,58.47
2022-12-23T11:10:29.983Z,42.15
2022-12-23T11:13:02.068Z,39.67
2022-12-23T11:15:36.207Z,51.30
2022-12-23T11:18:14.209Z,37.58
2022-12-23T11:20:48.186Z,31.77
2022-12-23T11:23:28.699Z,31.00
2022-12-23T11:26:15.827Z,31.45
2022-12-23T11:29:00.108Z,26.95
2022-12-23T11:31:36.901Z,26.10
2022-12-23T11:34:16.683Z,27.83
2022-12-23T11:37:01.760Z,19.95
2022-12-23T11:39:39.992Z,28.73
2022-12-23T11:42:17.871Z,30.80
2022-12-23T11:44:53.079Z,19.52
2022-12-23T11:47:43.057Z,26.50
2022-12-23T11:50:29.233Z,30.45
2022-12-23T11:53:14.619Z,16.60
2022-12-23T11:56:12.547Z,16.83
2022-12-23T11:59:18.146Z,23.85
2022-12-23T12:01:51.279Z,19.90
2022-12-23T12:04:27.511Z,16.60
2022-12-23T12:06:59.879Z,12.85
2022-12-23T12:09:34.327Z,16.77
2022-12-23T12:12:09.942Z,17.70
2022-12-23T12:14:47.391Z,24.58
2022-12-23T12:17:57.479Z,11.60
2022-12-23T12:20:31.774Z,14.07
2022-12-23T12:23:16.994Z,14.18
2022-12-23T12:26:02.300Z,13.85
2022-12-23T12:28:49.664Z,10.52
2022-12-23T12:31:30.456Z,12.23
2022-12-23T12:34:20.200Z,21.30
2022-12-23T12:37:12.387Z,18.55
2022-12-23T12:40:09.368Z,14.50
2022-12-23T12:42:44.160Z,10.82
2022-12-23T12:45:26.151Z,12.40
2022-12-23T12:48:04.619Z,12.95
2022-12-23T12:51:03.126Z,13.55
2022-12-23T12:53:35.508Z,17.55
2022-12-23T12:56:29.059Z,10.23
2022-12-23T12:59:00.769Z,16.23
2022-12-23T13:01:54.519Z,15.27
2022-12-23T13:04:54.974Z,10.55
2022-12-23T13:07:41.006Z,12.27
2022-12-23T13:10:50.803Z,18.98
2022-12-23T13:13:41.613Z,15.02
2022-12-23T13:16:21.767Z,20.98
2022-12-23T13:19:23.567Z,19.10
2022-12-23T13:22:07.725Z,11.95
2022-12-23T13:25:06.429Z,14.80
2022-12-23T13:27:47.267Z,18.00
2022-12-23T13:30:23.032Z,11.68
2022-12-23T13:33:12.207Z,17.40
2022-12-23T13:36:06.063Z,19.42
2022-12-23T13:38:51.950Z,10.88
2022-12-23T13:41:32.679Z,17.88
2022-12-23T13:44:09.314Z,21.25
2022-12-23T13:47:04.777Z,14.85
2022-12-23T13:50:16.161Z,18.50
2022-12-23T13:53:08.725Z,16.00
2022-12-23T13:55:59.072Z,12.57
2022-12-23T13:58:32.766Z,33.85
2022-12-23T14:01:12.821Z,56.50
2022-12-23T14:03:44.303Z,52.03
2022-12-23T14:06:24.063Z,40.33
2022-12-23T14:08:57.021Z,43.75
2022-12-23T14:11:33.767Z,34.08
2022-12-23T14:14:07.529Z,42.72
2022-12-23T14:17:02.454Z,37.40
2022-12-23T14:19:33.957Z,26.92
2022-12-23T14:22:20.580Z,21.58
2022-12-23T14:25:05.169Z,18.92
2022-12-23T14:27:57.620Z,22.75
2022-12-23T14:30:37.542Z,20.05
2022-12-23T14:33:24.202Z,26.75
2022-12-23T14:36:15.775Z,23.13
2022-12-23T14:39:15.463Z,15.70
2022-12-23T14:42:03.442Z,16.90
2022-12-23T14:44:39.867Z,14.88
2022-12-23T14:47:35.943Z,12.55
2022-12-23T14:50:35.522Z,12.10
2022-12-23T14:53:29.557Z,10.45
2022-12-23T14:56:14.429Z,14.07
2022-12-23T14:58:49.245Z,11.75
2022-12-23T15:01:22.298Z,8.13
2022-12-23T15:04:01.298Z,8.68
2022-12-23T15:06:41.413Z,12.38
2022-12-23T15:09:27.198Z,7.85
2022-12-23T15:12:01.761Z,7.88
2022-12-23T15:14:38.063Z,7.80
2022-12-23T15:17:40.287Z,8.65
2022-12-23T15:20:28.295Z,7.75
2022-12-23T15:23:03.874Z,7.65
2022-12-23T15:25:41.413Z,8.13
2022-12-23T15:28:39.452Z,7.65
2022-12-23T15:31:33.268Z,6.57
2022-12-23T15:34:16.773Z,15.95
2022-12-23T15:36:49.961Z,8.07
2022-12-23T15:39:27.202Z,8.23
2022-12-23T15:41:59.112Z,9.18
2022-12-23T15:44:41.676Z,7.80
2022-12-23T15:47:32.363Z,7.20
2022-12-23T15:50:05.624Z,11.73
2022-12-23T15:52:37.172Z,7.13
2022-12-23T15:55:22.937Z,7.75
2022-12-23T15:57:55.023Z,7.22
2022-12-23T16:03:11.896Z,10.02
2022-12-23T16:05:47.473Z,7.65
2022-12-23T16:08:30.167Z,7.38
2022-12-23T16:11:07.901Z,11.27
2022-12-23T16:13:43.112Z,7.18
2022-12-23T16:16:31.692Z,6.78
2022-12-23T16:19:03.108Z,6.78
2022-12-23T16:21:39.113Z,6.80
2022-12-23T16:24:11.352Z,6.88
2022-12-23T16:29:17.270Z,6.60
2022-12-23T16:34:27.055Z,6.68
2022-12-23T16:36:58.461Z,6.53
2022-12-23T16:39:29.668Z,6.13
2022-12-23T16:42:01.079Z,5.72
2022-12-23T16:44:32.266Z,6.23
2022-12-23T16:47:10.480Z,10.20
2022-12-23T16:49:41.724Z,6.68
2022-12-23T16:52:16.158Z,9.35
2022-12-23T16:54:47.298Z,6.40
2022-12-23T16:57:18.714Z,6.13
2022-12-23T16:59:51.547Z,6.73
2022-12-23T17:02:26.560Z,7.72
2022-12-23T17:04:57.774Z,5.53
2022-12-23T17:07:29.463Z,6.53
2022-12-23T17:10:00.724Z,5.88
2022-12-23T17:12:32.133Z,6.00
2022-12-23T17:15:03.277Z,5.70
2022-12-23T17:17:34.718Z,6.32
2022-12-23T17:20:06.231Z,6.30
2022-12-23T17:22:38.916Z,9.02
2022-12-23T17:25:12.116Z,6.32
2022-12-23T17:27:46.344Z,6.07
2022-12-23T17:30:19.703Z,6.75
2022-12-23T17:32:58.497Z,7.68
2022-12-23T17:35:30.626Z,11.32
2022-12-23T17:38:03.304Z,6.50
2022-12-23T17:40:34.626Z,6.50
2022-12-23T17:43:06.012Z,6.40
2022-12-23T17:45:37.272Z,6.97
2022-12-23T17:48:08.838Z,6.50
2022-12-23T17:50:41.177Z,6.90
2022-12-23T17:53:16.725Z,6.10
2022-12-23T17:55:48.801Z,6.53
2022-12-23T17:58:20.286Z,6.50
2022-12-23T18:00:51.535Z,7.77
2022-12-23T18:03:26.273Z,6.25
2022-12-23T18:06:01.627Z,6.63
2022-12-23T18:08:33.730Z,6.80
2022-12-23T18:11:05.057Z,6.47
2022-12-23T18:13:37.314Z,6.97
2022-12-23T18:16:08.606Z,7.47
2022-12-23T18:18:46.127Z,7.18
2022-12-23T18:21:29.405Z,7.03
2022-12-23T18:24:02.244Z,7.35
2022-12-23T18:26:33.455Z,9.15
2022-12-23T18:29:05.054Z,7.22
2022-12-23T18:31:37.740Z,12.40
2022-12-23T18:34:09.111Z,7.28
2022-12-23T18:36:40.444Z,13.47
2022-12-23T18:39:11.893Z,7.05
2022-12-23T18:41:43.087Z,7.70
2022-12-23T18:44:21.767Z,9.30
2022-12-23T18:46:53.061Z,8.75
2022-12-23T18:49:24.484Z,13.10
2022-12-23T18:51:55.658Z,8.37
2022-12-23T18:54:26.993Z,8.07
2022-12-23T18:56:58.436Z,9.70
2022-12-23T18:59:30.463Z,8.43
2022-12-23T19:02:01.981Z,11.80
2022-12-23T19:04:33.450Z,8.02
2022-12-23T19:07:04.651Z,8.60
2022-12-23T19:09:35.988Z,7.57
2022-12-23T19:12:07.486Z,7.82
2022-12-23T19:14:41.039Z,10.23
2022-12-23T19:17:12.331Z,8.20
2022-12-23T19:19:44.008Z,9.15
2022-12-23T19:22:15.238Z,8.18
2022-12-23T19:25:03.765Z,9.52
2022-12-23T19:27:36.582Z,9.57
2022-12-23T19:30:10.015Z,7.70
2022-12-23T19:32:41.771Z,8.60
2022-12-23T19:35:17.106Z,9.88
2022-12-23T19:37:48.421Z,10.00
2022-12-23T19:40:19.899Z,8.55
2022-12-23T19:42:51.137Z,8.38
2022-12-23T19:45:22.530Z,7.80
2022-12-23T19:47:53.632Z,8.63
2022-12-23T19:50:25.317Z,12.48
2022-12-23T19:52:57.603Z,9.25
2022-12-23T19:55:28.955Z,9.30
2022-12-23T19:58:00.118Z,11.30
2022-12-23T20:00:31.539Z,10.60
2022-12-23T20:03:02.853Z,11.00
2022-12-23T20:05:34.415Z,12.90
2022-12-23T20:08:05.645Z,19.30
2022-12-23T20:10:36.960Z,9.75
2022-12-23T20:13:08.216Z,13.77
2022-12-23T20:15:39.600Z,8.98
2022-12-23T20:18:11.009Z,10.10
2022-12-23T20:20:46.344Z,10.82
2022-12-23T20:23:17.583Z,9.30
2022-12-23T20:25:49.369Z,11.98
2022-12-23T20:28:20.968Z,9.38
2022-12-23T20:31:18.706Z,11.23
2022-12-23T20:33:51.759Z,10.05
2022-12-23T20:36:29.447Z,10.35
2022-12-23T20:39:01.342Z,9.05
2022-12-23T20:41:33.744Z,9.27
2022-12-23T20:46:56.440Z,9.02
2022-12-23T20:49:28.363Z,9.52
2022-12-23T20:51:59.563Z,9.43
2022-12-23T20:54:33.673Z,9.82
2022-12-23T20:57:05.399Z,9.85
2022-12-23T20:59:36.763Z,7.97
2022-12-23T21:02:07.989Z,9.80
2022-12-23T21:04:39.383Z,9.60
2022-12-23T21:07:10.940Z,8.60
2022-12-23T21:09:42.604Z,8.38
2022-12-23T21:12:13.733Z,7.72
2022-12-23T21:14:45.091Z,8.20
2022-12-23T21:17:16.303Z,8.33
2022-12-23T21:19:47.704Z,8.48
2022-12-23T21:22:18.848Z,8.95
2022-12-23T21:24:50.190Z,10.65
2022-12-23T21:27:21.395Z,8.32
2022-12-23T21:29:52.742Z,8.43
2022-12-23T21:32:23.941Z,8.98
2022-12-23T21:34:55.297Z,9.05
2022-12-23T21:37:26.483Z,8.35
2022-12-23T21:39:57.857Z,10.43
2022-12-23T21:42:29.071Z,12.73
2022-12-23T21:45:00.392Z,12.25
2022-12-23T21:47:31.658Z,9.43
2022-12-23T21:50:03.108Z,11.90
2022-12-23T21:52:34.274Z,12.23
2022-12-23T21:55:05.877Z,12.25
2022-12-23T21:57:37.046Z,10.17
2022-12-23T22:00:09.075Z,12.05
2022-12-23T22:02:40.362Z,10.18
2022-12-23T22:05:11.877Z,11.10
2022-12-23T22:07:43.013Z,14.40
2022-12-23T22:10:14.450Z,9.65
2022-12-23T22:12:45.620Z,12.20
2022-12-23T22:15:17.112Z,10.13
2022-12-23T22:17:48.269Z,11.63
2022-12-23T22:20:19.701Z,9.95
2022-12-23T22:22:51.239Z,10.80
2022-12-23T22:25:22.710Z,12.57
2022-12-23T22:27:53.917Z,11.03
2022-12-23T22:30:25.347Z,10.95
2022-12-23T22:32:56.560Z,11.50
2022-12-23T22:35:29.423Z,14.85
2022-12-23T22:38:00.710Z,10.25
2022-12-23T22:40:32.151Z,10.60
2022-12-23T22:43:03.269Z,16.87
2022-12-23T22:45:34.644Z,10.55
2022-12-23T22:48:06.197Z,17.00
2022-12-23T22:50:37.691Z,14.03
2022-12-23T22:53:08.975Z,13.30
2022-12-23T22:55:40.389Z,10.35
2022-12-23T22:58:11.587Z,11.33
2022-12-23T23:00:42.930Z,9.70
2022-12-23T23:03:14.160Z,12.60
2022-12-23T23:05:45.659Z,10.00
2022-12-23T23:08:16.868Z,17.70
2022-12-23T23:10:48.242Z,10.52
2022-12-23T23:13:19.520Z,11.23
2022-12-23T23:15:51.419Z,10.90
2022-12-23T23:18:22.751Z,12.20
2022-12-23T23:20:54.552Z,10.57
2022-12-23T23:23:25.979Z,11.27
2022-12-23T23:25:57.432Z,20.03
2022-12-23T23:28:28.720Z,13.00
2022-12-23T23:31:32.084Z,12.27
2022-12-23T23:33:51.349Z,12.10
2022-12-23T23:36:22.945Z,10.93
2022-12-23T23:38:54.177Z,11.82
2022-12-23T23:41:25.581Z,15.18
2022-12-23T23:43:56.748Z,12.13
2022-12-23T23:46:28.234Z,31.30
2022-12-23T23:48:59.770Z,12.17
2022-12-23T23:51:31.232Z,13.10
2022-12-23T23:54:02.481Z,18.50
2022-12-23T23:56:38.574Z,18.60
2022-12-23T23:59:11.483Z,22.42
